createdAt,value
2017-09-18T00:02:07.367Z,12.00
2017-09-18T00:04:35.628Z,11.80
2017-09-18T00:07:03.104Z,11.90
2017-09-18T00:09:31.338Z,11.80
2017-09-18T00:11:58.824Z,11.80
2017-09-18T00:14:26.296Z,11.80
2017-09-18T00:16:54.649Z,11.80
2017-09-18T00:19:22.123Z,11.80
2017-09-18T00:21:50.363Z,11.80
2017-09-18T00:24:17.852Z,11.80
2017-09-18T00:26:46.092Z,11.70
2017-09-18T00:29:13.698Z,11.70
2017-09-18T00:31:41.936Z,11.70
2017-09-18T00:34:09.415Z,11.60
2017-09-18T00:36:36.900Z,11.60
2017-09-18T00:39:05.140Z,11.60
2017-09-18T00:41:32.719Z,11.50
2017-09-18T00:44:00.279Z,11.50
2017-09-18T00:46:28.528Z,11.50
2017-09-18T00:48:56.018Z,11.50
2017-09-18T00:51:24.259Z,11.50
2017-09-18T00:53:51.768Z,11.40
2017-09-18T00:56:20.004Z,11.40
2017-09-18T00:58:47.480Z,11.40
2017-09-18T01:01:14.959Z,11.40
2017-09-18T01:03:43.256Z,11.40
2017-09-18T01:06:10.779Z,11.30
2017-09-18T01:08:38.247Z,11.40
2017-09-18T01:11:06.482Z,11.40
2017-09-18T01:13:33.975Z,11.30
2017-09-18T01:16:02.251Z,11.30
2017-09-18T01:18:30.519Z,11.40
2017-09-18T01:20:57.983Z,11.30
2017-09-18T01:23:26.227Z,11.30
2017-09-18T01:25:53.728Z,11.30
2017-09-18T01:28:21.963Z,11.30
2017-09-18T01:30:49.456Z,11.20
2017-09-18T01:33:17.698Z,11.20
2017-09-18T01:35:45.169Z,11.10
2017-09-18T01:38:12.652Z,11.10
2017-09-18T01:40:40.889Z,11.10
2017-09-18T01:43:08.386Z,11.00
2017-09-18T01:45:36.624Z,11.00
2017-09-18T01:48:04.092Z,11.00
2017-09-18T01:50:31.575Z,10.90
2017-09-18T01:52:59.808Z,10.90
2017-09-18T01:55:27.328Z,10.90
2017-09-18T01:57:54.799Z,10.90
2017-09-18T02:00:22.284Z,10.90
2017-09-18T02:02:49.771Z,10.90
2017-09-18T02:05:17.239Z,10.90
2017-09-18T02:07:45.504Z,11.00
2017-09-18T02:10:12.980Z,10.90
2017-09-18T02:12:41.245Z,11.00
2017-09-18T02:15:09.515Z,10.90
2017-09-18T02:17:36.988Z,10.90
2017-09-18T02:20:05.239Z,11.00
2017-09-18T02:22:32.711Z,10.90
2017-09-18T02:25:00.198Z,11.00
2017-09-18T02:27:27.695Z,11.00
2017-09-18T02:29:55.165Z,11.00
2017-09-18T02:32:22.659Z,11.00
2017-09-18T02:34:50.904Z,11.10
2017-09-18T02:37:18.375Z,11.10
2017-09-18T02:39:45.954Z,11.10
2017-09-18T02:42:14.197Z,11.20
2017-09-18T02:44:41.735Z,11.20
2017-09-18T02:47:09.209Z,11.20
2017-09-18T02:49:36.694Z,11.30
2017-09-18T02:52:04.947Z,11.30
2017-09-18T02:54:32.421Z,11.30
2017-09-18T02:57:00.684Z,11.30
2017-09-18T02:59:28.170Z,11.30
2017-09-18T03:01:56.408Z,11.30
2017-09-18T03:04:23.908Z,11.30
2017-09-18T03:06:52.156Z,11.30
2017-09-18T03:09:19.647Z,11.30
2017-09-18T03:11:47.884Z,11.40
2017-09-18T03:14:15.361Z,11.40
2017-09-18T03:16:42.848Z,11.40
2017-09-18T03:19:10.318Z,11.40
2017-09-18T03:21:37.815Z,11.40
2017-09-18T03:24:05.292Z,11.40
2017-09-18T03:26:32.864Z,11.40
2017-09-18T03:29:01.115Z,11.40
2017-09-18T03:31:28.587Z,11.40
2017-09-18T03:33:56.085Z,11.40
2017-09-18T03:36:23.615Z,11.50
2017-09-18T03:38:51.843Z,11.50
2017-09-18T03:41:19.325Z,11.40
2017-09-18T03:43:46.797Z,11.40
2017-09-18T03:46:14.289Z,11.40
2017-09-18T03:48:41.755Z,11.30
2017-09-18T03:51:09.236Z,11.20
2017-09-18T03:53:36.717Z,11.10
2017-09-18T03:56:04.191Z,11.10
2017-09-18T03:58:31.684Z,11.10
2017-09-18T04:00:59.152Z,11.20
2017-09-18T04:03:26.636Z,11.20
2017-09-18T04:05:54.127Z,11.10
2017-09-18T04:08:22.376Z,11.10
2017-09-18T04:10:49.958Z,11.00
2017-09-18T04:13:17.437Z,11.10
2017-09-18T04:15:45.680Z,11.00
2017-09-18T04:18:13.168Z,11.00
2017-09-18T04:20:41.416Z,11.00
2017-09-18T04:23:08.907Z,11.00
2017-09-18T04:25:36.396Z,11.00
2017-09-18T04:28:03.865Z,11.00
2017-09-18T04:30:31.356Z,11.10
2017-09-18T04:32:58.828Z,11.10
2017-09-18T04:35:27.089Z,11.10
2017-09-18T04:37:54.655Z,11.10
2017-09-18T04:40:22.895Z,11.10
2017-09-18T04:42:50.384Z,11.00
2017-09-18T04:45:17.861Z,11.00
2017-09-18T04:47:46.119Z,11.10
2017-09-18T04:50:13.591Z,11.10
2017-09-18T04:52:41.835Z,11.10
2017-09-18T04:55:09.334Z,11.10
2017-09-18T04:57:37.571Z,11.10
2017-09-18T05:00:05.052Z,11.10
2017-09-18T05:02:33.356Z,11.00
2017-09-18T05:05:00.852Z,11.00
2017-09-18T05:07:28.327Z,11.00
2017-09-18T05:09:55.823Z,11.00
2017-09-18T05:12:23.301Z,11.00
2017-09-18T05:14:50.784Z,11.00
2017-09-18T05:17:18.315Z,10.90
2017-09-18T05:19:45.779Z,10.90
2017-09-18T05:22:13.247Z,10.90
2017-09-18T05:24:40.733Z,11.00
2017-09-18T05:27:08.203Z,11.00
2017-09-18T05:29:35.795Z,10.90
2017-09-18T05:32:03.290Z,10.90
2017-09-18T05:34:30.755Z,10.90
2017-09-18T05:36:58.224Z,10.90
2017-09-18T05:39:25.716Z,11.00
2017-09-18T05:41:53.951Z,11.00
2017-09-18T05:44:21.435Z,11.00
2017-09-18T05:46:49.697Z,11.10
2017-09-18T05:49:17.176Z,11.10
2017-09-18T05:51:45.411Z,11.10
2017-09-18T05:54:12.904Z,11.10
2017-09-18T05:56:40.367Z,11.20
2017-09-18T05:59:08.612Z,11.10
2017-09-18T06:01:36.098Z,11.10
2017-09-18T06:04:03.576Z,11.20
2017-09-18T06:06:31.818Z,11.20
2017-09-18T06:08:59.312Z,11.20
2017-09-18T06:11:27.556Z,11.30
2017-09-18T06:13:55.039Z,11.20
2017-09-18T06:16:23.301Z,11.30
2017-09-18T06:18:51.547Z,11.30
2017-09-18T06:21:19.032Z,11.30
2017-09-18T06:23:46.532Z,11.40
2017-09-18T06:26:14.016Z,11.40
2017-09-18T06:28:41.487Z,11.40
2017-09-18T06:31:08.988Z,11.40
2017-09-18T06:33:37.286Z,11.50
2017-09-18T06:36:04.752Z,11.50
2017-09-18T06:38:32.240Z,11.50
2017-09-18T06:40:59.716Z,11.50
2017-09-18T06:43:27.195Z,11.40
2017-09-18T06:45:55.468Z,11.50
2017-09-18T06:48:23.772Z,11.50
2017-09-18T06:50:51.256Z,11.50
2017-09-18T06:53:18.752Z,11.70
2017-09-18T06:55:46.998Z,11.70
2017-09-18T06:58:14.463Z,11.70
2017-09-18T07:00:41.962Z,11.70
2017-09-18T07:03:10.214Z,11.90
2017-09-18T07:05:37.686Z,11.80
2017-09-18T07:08:05.992Z,11.90
2017-09-18T07:10:33.553Z,11.80
2017-09-18T07:13:01.032Z,11.90
2017-09-18T07:15:28.524Z,12.00
2017-09-18T07:17:56.001Z,12.00
2017-09-18T07:20:24.239Z,12.00
2017-09-18T07:22:51.740Z,11.90
2017-09-18T07:25:19.983Z,12.00
2017-09-18T07:27:47.468Z,12.00
2017-09-18T07:30:15.728Z,12.00
2017-09-18T07:32:43.984Z,12.00
2017-09-18T07:35:11.452Z,12.00
2017-09-18T07:37:38.944Z,12.10
2017-09-18T07:40:07.183Z,12.20
2017-09-18T07:42:34.652Z,12.10
2017-09-18T07:45:02.151Z,12.30
2017-09-18T07:47:29.633Z,12.40
2017-09-18T07:49:57.104Z,12.50
2017-09-18T07:52:24.600Z,12.60
2017-09-18T07:54:52.837Z,12.70
2017-09-18T07:57:20.307Z,12.70
2017-09-18T07:59:47.828Z,12.80
2017-09-18T08:02:15.300Z,12.90
2017-09-18T08:04:42.801Z,12.90
2017-09-18T08:07:11.192Z,13.00
2017-09-18T08:09:39.424Z,13.00
2017-09-18T08:12:06.892Z,13.00
2017-09-18T08:14:34.384Z,13.00
2017-09-18T08:17:02.624Z,13.20
2017-09-18T08:19:30.146Z,13.20
2017-09-18T08:21:57.639Z,13.30
2017-09-18T08:24:25.107Z,13.40
2017-09-18T08:26:52.585Z,13.60
2017-09-18T08:29:20.860Z,13.70
2017-09-18T08:31:49.113Z,13.90
2017-09-18T08:34:16.588Z,13.90
2017-09-18T08:36:44.848Z,14.20
2017-09-18T08:39:12.327Z,14.20
2017-09-18T08:41:40.568Z,14.40
2017-09-18T08:44:08.067Z,14.30
2017-09-18T08:46:36.311Z,14.60
2017-09-18T08:49:03.787Z,14.50
2017-09-18T08:51:32.053Z,14.80
2017-09-18T08:53:59.632Z,14.70
2017-09-18T08:56:27.876Z,14.60
2017-09-18T08:58:55.379Z,14.60
2017-09-18T09:01:23.618Z,14.50
2017-09-18T09:03:51.091Z,14.50
2017-09-18T09:06:18.585Z,14.60
2017-09-18T09:08:46.054Z,14.70
2017-09-18T09:11:13.532Z,14.70
2017-09-18T09:13:41.039Z,14.70
2017-09-18T09:16:09.275Z,14.80
2017-09-18T09:18:36.751Z,14.80
2017-09-18T09:21:04.243Z,14.80
2017-09-18T09:23:32.505Z,14.70
2017-09-18T09:26:00.743Z,14.70
2017-09-18T09:28:28.248Z,14.70
2017-09-18T09:30:56.483Z,14.60
2017-09-18T09:33:23.975Z,14.60
2017-09-18T09:35:52.244Z,14.60
2017-09-18T09:38:20.493Z,14.50
2017-09-18T09:40:47.969Z,14.50
2017-09-18T09:43:15.464Z,14.50
2017-09-18T09:45:42.954Z,14.40
2017-09-18T09:48:10.464Z,14.40
2017-09-18T09:50:38.723Z,14.40
2017-09-18T09:53:06.196Z,14.30
2017-09-18T09:55:34.440Z,14.30
2017-09-18T09:58:01.931Z,14.30
2017-09-18T10:00:30.204Z,14.20
2017-09-18T10:02:58.485Z,14.30
2017-09-18T10:05:26.764Z,14.30
2017-09-18T10:07:55.011Z,14.40
2017-09-18T10:10:22.485Z,14.30
2017-09-18T10:12:49.972Z,14.30
2017-09-18T10:15:17.446Z,14.40
2017-09-18T10:17:44.923Z,14.40
2017-09-18T10:20:12.449Z,14.40
2017-09-18T10:22:39.925Z,14.50
2017-09-18T10:25:07.415Z,14.50
2017-09-18T12:59:44.603Z,17.30
2017-09-18T13:02:12.075Z,17.40
2017-09-18T13:04:40.563Z,17.70
2017-09-18T13:07:08.052Z,18.20
2017-09-18T13:09:35.519Z,18.30
2017-09-18T13:12:02.996Z,18.20
2017-09-18T13:14:31.251Z,18.10
2017-09-18T13:16:58.719Z,18.10
2017-09-18T13:19:26.955Z,18.30
2017-09-18T13:21:54.457Z,18.30
2017-09-18T13:24:22.703Z,18.90
2017-09-18T13:26:50.175Z,18.90
2017-09-18T13:29:17.684Z,18.70
2017-09-18T13:31:45.148Z,18.30
2017-09-18T13:34:13.627Z,18.20
2017-09-18T13:36:41.115Z,18.20
2017-09-18T13:39:08.595Z,18.90
2017-09-18T13:41:36.059Z,19.30
2017-09-18T13:44:04.324Z,18.50
2017-09-18T13:46:31.828Z,18.50
2017-09-18T13:48:59.316Z,18.10
2017-09-18T13:51:26.803Z,17.90
2017-09-18T13:53:55.062Z,18.20
2017-09-18T13:56:22.530Z,18.20
2017-09-18T13:58:50.029Z,17.80
2017-09-18T14:01:17.506Z,17.60
2017-09-18T14:03:44.976Z,17.30
2017-09-18T14:06:12.476Z,17.10
2017-09-18T14:08:40.737Z,16.60
2017-09-18T14:11:08.989Z,16.40
2017-09-18T14:13:36.479Z,16.40
2017-09-18T14:16:03.958Z,16.30
2017-09-18T14:18:32.199Z,15.90
2017-09-18T14:20:59.685Z,15.90
2017-09-18T14:23:27.927Z,15.80
2017-09-18T14:25:55.402Z,15.80
2017-09-18T14:28:22.895Z,15.70
2017-09-18T14:30:50.365Z,15.70
2017-09-18T14:33:17.839Z,15.70
2017-09-18T14:35:45.332Z,15.60
2017-09-18T14:38:12.807Z,15.60
2017-09-18T14:40:41.048Z,15.60
2017-09-18T14:43:08.565Z,15.50
2017-09-18T14:45:36.033Z,15.50
2017-09-18T14:48:03.494Z,15.40
2017-09-18T14:50:31.055Z,15.40
2017-09-18T14:52:58.525Z,15.40
2017-09-18T14:55:25.995Z,15.50
2017-09-18T14:57:53.592Z,15.40
2017-09-18T15:00:21.844Z,15.40
2017-09-18T15:02:49.314Z,15.30
2017-09-18T15:05:16.807Z,15.40
2017-09-18T15:07:44.277Z,15.20
2017-09-18T15:10:11.745Z,15.20
2017-09-18T15:12:39.242Z,15.20
2017-09-18T15:15:06.815Z,15.10
2017-09-18T15:17:34.291Z,15.10
2017-09-18T15:20:02.550Z,15.10
2017-09-18T15:22:30.799Z,15.10
2017-09-18T15:24:58.271Z,15.10
2017-09-18T15:27:25.756Z,15.10
2017-09-18T15:29:54.018Z,15.00
2017-09-18T15:32:21.495Z,15.00
2017-09-18T15:34:49.869Z,15.10
2017-09-18T15:37:18.099Z,15.10
2017-09-18T15:39:45.567Z,15.10
2017-09-18T15:42:13.055Z,15.00
2017-09-18T15:44:41.292Z,14.80
2017-09-18T15:47:08.780Z,14.80
2017-09-18T15:49:36.273Z,14.60
2017-09-18T15:52:03.858Z,14.50
2017-09-18T15:54:31.328Z,14.30
2017-09-18T15:56:58.834Z,14.20
2017-09-18T15:59:27.074Z,14.20
2017-09-18T16:01:54.551Z,14.20
2017-09-18T16:04:22.963Z,14.10
2017-09-18T16:06:51.270Z,14.00
2017-09-18T16:09:18.771Z,14.00
2017-09-18T16:11:47.038Z,13.90
2017-09-18T16:14:14.520Z,13.90
2017-09-18T16:16:41.991Z,13.90
2017-09-18T16:19:09.522Z,13.80
2017-09-18T16:21:37.007Z,13.70
2017-09-18T16:24:04.473Z,13.60
2017-09-18T16:26:31.962Z,13.70
2017-09-18T16:28:59.450Z,13.50
2017-09-18T16:31:26.919Z,13.50
2017-09-18T16:33:55.166Z,13.50
2017-09-18T16:36:22.682Z,13.50
2017-09-18T16:38:50.146Z,13.50
2017-09-18T16:41:17.643Z,13.40
2017-09-18T16:43:45.109Z,13.40
2017-09-18T16:46:12.583Z,13.50
2017-09-18T16:48:40.867Z,13.40
2017-09-18T16:51:09.122Z,13.40
2017-09-18T16:53:36.590Z,13.40
2017-09-18T16:56:04.844Z,13.40
2017-09-18T16:58:32.319Z,13.40
2017-09-18T17:00:59.791Z,13.40
2017-09-18T17:03:28.059Z,13.40
2017-09-18T17:05:55.547Z,13.40
2017-09-18T17:08:23.015Z,13.30
2017-09-18T17:10:50.506Z,13.30
2017-09-18T17:13:17.978Z,13.30
2017-09-18T17:15:45.447Z,13.30
2017-09-18T17:18:13.731Z,13.30
2017-09-18T17:20:41.967Z,13.20
2017-09-18T17:23:09.489Z,13.20
2017-09-18T17:25:36.996Z,13.20
2017-09-18T17:28:04.463Z,13.30
2017-09-18T17:30:31.927Z,13.30
2017-09-18T17:32:59.430Z,13.30
2017-09-18T17:35:26.902Z,13.20
2017-09-18T17:37:54.410Z,13.20
2017-09-18T17:40:22.687Z,13.30
2017-09-18T17:42:50.149Z,13.20
2017-09-18T17:45:18.387Z,13.30
2017-09-18T17:47:45.910Z,13.20
2017-09-18T17:50:13.395Z,13.20
2017-09-18T17:52:40.938Z,13.30
2017-09-18T17:55:08.437Z,13.20
2017-09-18T17:57:35.919Z,13.20
2017-09-18T18:00:04.156Z,13.10
2017-09-18T18:02:31.651Z,13.10
2017-09-18T18:04:59.143Z,13.10
2017-09-18T18:07:26.624Z,13.10
2017-09-18T18:09:54.111Z,13.10
2017-09-18T18:12:21.623Z,13.20
2017-09-18T18:14:49.146Z,13.20
2017-09-18T18:17:17.399Z,13.10
2017-09-18T18:19:44.871Z,13.10
2017-09-18T18:22:12.335Z,13.10
2017-09-18T18:24:39.822Z,13.10
2017-09-18T18:27:07.303Z,13.10
2017-09-18T18:29:34.791Z,13.20
2017-09-18T18:32:02.280Z,13.20
2017-09-18T18:34:30.520Z,13.20
2017-09-18T18:36:58.002Z,13.20
2017-09-18T18:39:25.602Z,13.20
2017-09-18T18:41:53.087Z,13.20
2017-09-18T18:44:20.563Z,13.20
2017-09-18T18:46:48.077Z,13.20
2017-09-18T18:49:15.548Z,13.20
2017-09-18T18:51:43.023Z,13.20
2017-09-18T18:54:10.518Z,13.10
2017-09-18T18:56:38.756Z,13.10
2017-09-18T18:59:06.227Z,13.10
2017-09-18T19:01:33.717Z,13.10
2017-09-18T19:04:01.947Z,13.10
2017-09-18T19:06:29.850Z,13.10
2017-09-18T19:08:58.107Z,13.20
2017-09-18T19:11:25.580Z,13.20
2017-09-18T19:13:53.048Z,13.20
2017-09-18T19:16:21.330Z,13.10
2017-09-18T19:18:49.591Z,13.10
2017-09-18T19:21:17.840Z,13.10
2017-09-18T19:23:45.334Z,13.10
2017-09-18T19:26:13.567Z,13.10
2017-09-18T19:28:41.076Z,13.10
2017-09-18T19:31:08.642Z,13.10
2017-09-18T19:33:36.878Z,13.10
2017-09-18T19:36:04.359Z,13.10
2017-09-18T19:38:31.856Z,13.10
2017-09-18T19:40:59.327Z,13.00
2017-09-18T19:43:26.795Z,13.00
2017-09-18T19:45:54.293Z,13.00
2017-09-18T19:48:22.529Z,13.00
2017-09-18T19:50:50.005Z,13.00
2017-09-18T19:53:17.498Z,13.00
2017-09-18T19:55:45.767Z,13.00
2017-09-18T19:58:14.031Z,13.10
2017-09-18T20:00:41.518Z,13.00
2017-09-18T20:03:08.996Z,13.10
2017-09-18T20:05:36.492Z,13.10
2017-09-18T20:08:03.955Z,13.10
2017-09-18T20:10:31.427Z,13.20
2017-09-18T20:12:59.678Z,13.10
2017-09-18T20:15:27.138Z,13.10
2017-09-18T20:17:54.664Z,13.10
2017-09-18T20:20:22.914Z,13.00
2017-09-18T20:22:51.175Z,13.10
2017-09-18T20:25:19.445Z,13.10
2017-09-18T20:27:46.913Z,13.10
2017-09-18T20:30:15.178Z,13.10
2017-09-18T20:32:42.740Z,13.10
2017-09-18T20:35:10.974Z,13.20
2017-09-18T20:37:38.467Z,13.20
2017-09-18T20:40:05.934Z,13.20
2017-09-18T20:42:33.418Z,13.30
2017-09-18T20:45:00.884Z,13.30
2017-09-18T20:47:28.360Z,13.30
2017-09-18T20:49:55.891Z,13.30
2017-09-18T20:52:23.355Z,13.30
2017-09-18T20:54:50.854Z,13.20
2017-09-18T20:57:18.323Z,13.20
2017-09-18T20:59:45.794Z,13.20
2017-09-18T21:02:13.279Z,13.20
2017-09-18T21:04:40.750Z,13.20
2017-09-18T21:07:08.239Z,13.20
2017-09-18T21:09:35.705Z,13.20
2017-09-18T21:12:03.168Z,13.20
2017-09-18T21:14:30.667Z,13.20
2017-09-18T21:16:58.904Z,13.20
2017-09-18T21:19:26.406Z,13.10
2017-09-18T21:21:54.659Z,13.20
2017-09-18T21:24:22.922Z,13.20
2017-09-18T21:26:50.410Z,13.20
2017-09-18T21:29:18.642Z,13.20
2017-09-18T21:31:46.144Z,13.10
2017-09-18T21:34:14.372Z,13.10
2017-09-18T21:36:41.838Z,13.10
2017-09-18T21:39:09.332Z,13.10
2017-09-18T21:41:37.571Z,13.10
2017-09-18T21:44:05.061Z,13.10
2017-09-18T21:46:33.370Z,13.00
2017-09-18T21:49:00.844Z,13.00
2017-09-18T21:51:28.328Z,13.00
2017-09-18T21:53:55.799Z,13.00
2017-09-18T21:56:23.291Z,13.00
2017-09-18T21:58:50.756Z,13.00
2017-09-18T22:01:18.223Z,13.00
2017-09-18T22:03:45.711Z,13.00
2017-09-18T22:06:13.179Z,13.00
2017-09-18T22:08:40.671Z,13.00
2017-09-18T22:11:08.911Z,13.10
2017-09-18T22:13:36.386Z,13.00
2017-09-18T22:16:03.880Z,13.10
2017-09-18T22:18:31.351Z,13.10
2017-09-18T22:20:58.860Z,13.10
2017-09-18T22:23:26.327Z,13.00
2017-09-18T22:25:54.563Z,13.00
2017-09-18T22:28:22.051Z,13.00
2017-09-18T22:30:49.523Z,13.00
2017-09-18T22:33:17.783Z,12.90
2017-09-18T22:35:45.254Z,12.90
2017-09-18T22:38:13.494Z,12.90
2017-09-18T22:40:41.091Z,12.90
2017-09-18T22:43:09.322Z,12.90
2017-09-18T22:45:36.819Z,12.90
2017-09-18T22:48:04.287Z,12.90
2017-09-18T22:50:32.549Z,12.90
2017-09-18T22:53:00.032Z,12.90
2017-09-18T22:55:27.571Z,12.90
2017-09-18T22:57:55.867Z,12.90
2017-09-18T23:00:23.347Z,12.80
2017-09-18T23:02:50.818Z,12.80
2017-09-18T23:05:18.314Z,12.80
2017-09-18T23:07:45.791Z,12.80
2017-09-18T23:10:14.051Z,12.70
2017-09-18T23:12:41.527Z,12.70
2017-09-18T23:15:09.768Z,12.80
2017-09-18T23:17:37.254Z,12.80
2017-09-18T23:20:05.496Z,12.70
2017-09-18T23:22:33.126Z,12.70
2017-09-18T23:25:01.100Z,12.70
2017-09-18T23:27:28.582Z,12.70
2017-09-18T23:29:56.087Z,12.80
2017-09-18T23:32:24.335Z,12.80
2017-09-18T23:34:51.835Z,12.80
2017-09-18T23:37:19.314Z,12.80
2017-09-18T23:39:46.795Z,12.80
2017-09-18T23:42:14.291Z,12.80
2017-09-18T23:44:42.540Z,12.70
2017-09-18T23:47:10.039Z,12.70
2017-09-18T23:49:38.276Z,12.80
2017-09-18T23:52:05.751Z,12.80
2017-09-18T23:54:33.234Z,12.70
2017-09-18T23:57:00.715Z,12.70
2017-09-18T23:59:28.220Z,12.70
